sensor_id;sensor_type;location;lat;lon;timestamp;P1;durP1;ratioP1;P2;durP2;ratioP2
51374;SDS011;37465;52.738;4.752;2022-12-29T00:01:40;8.48;;;3.15;;
51374;SDS011;37465;52.738;4.752;2022-12-29T00:04:09;8.20;;;3.33;;
51374;SDS011;37465;52.738;4.752;2022-12-29T00:06:42;9.10;;;3.30;;
51374;SDS011;37465;52.738;4.752;2022-12-29T00:09:10;9.60;;;3.00;;
51374;SDS011;37465;52.738;4.752;2022-12-29T00:11:38;8.98;;;3.30;;
51374;SDS011;37465;52.738;4.752;2022-12-29T00:14:05;9.77;;;3.10;;
51374;SDS011;37465;52.738;4.752;2022-12-29T00:16:52;9.30;;;3.15;;
51374;SDS011;37465;52.738;4.752;2022-12-29T00:19:20;10.55;;;3.40;;
51374;SDS011;37465;52.738;4.752;2022-12-29T00:22:08;9.50;;;3.20;;
51374;SDS011;37465;52.738;4.752;2022-12-29T00:24:53;11.23;;;3.17;;
51374;SDS011;37465;52.738;4.752;2022-12-29T00:27:39;9.75;;;3.20;;
51374;SDS011;37465;52.738;4.752;2022-12-29T00:30:32;7.80;;;2.92;;
51374;SDS011;37465;52.738;4.752;2022-12-29T00:33:17;9.93;;;3.30;;
51374;SDS011;37465;52.738;4.752;2022-12-29T00:36:04;9.95;;;3.47;;
51374;SDS011;37465;52.738;4.752;2022-12-29T00:38:35;10.23;;;3.47;;
51374;SDS011;37465;52.738;4.752;2022-12-29T00:41:22;8.52;;;3.33;;
51374;SDS011;37465;52.738;4.752;2022-12-29T00:44:08;9.65;;;2.88;;
51374;SDS011;37465;52.738;4.752;2022-12-29T00:46:37;8.07;;;2.65;;
51374;SDS011;37465;52.738;4.752;2022-12-29T00:49:05;11.93;;;2.70;;
51374;SDS011;37465;52.738;4.752;2022-12-29T00:52:01;6.72;;;2.30;;
51374;SDS011;37465;52.738;4.752;2022-12-29T00:54:31;9.77;;;3.20;;
51374;SDS011;37465;52.738;4.752;2022-12-29T00:57:00;10.45;;;3.38;;
51374;SDS011;37465;52.738;4.752;2022-12-29T00:59:28;12.32;;;4.03;;
51374;SDS011;37465;52.738;4.752;2022-12-29T01:01:56;13.57;;;4.43;;
51374;SDS011;37465;52.738;4.752;2022-12-29T01:04:25;13.73;;;4.72;;
51374;SDS011;37465;52.738;4.752;2022-12-29T01:06:53;13.95;;;5.78;;
51374;SDS011;37465;52.738;4.752;2022-12-29T01:09:20;11.33;;;5.53;;
51374;SDS011;37465;52.738;4.752;2022-12-29T01:12:07;11.63;;;5.43;;
51374;SDS011;37465;52.738;4.752;2022-12-29T01:14:36;11.07;;;5.10;;
51374;SDS011;37465;52.738;4.752;2022-12-29T01:17:04;10.57;;;4.97;;
51374;SDS011;37465;52.738;4.752;2022-12-29T01:19:32;8.80;;;4.00;;
51374;SDS011;37465;52.738;4.752;2022-12-29T01:22:00;10.27;;;3.40;;
51374;SDS011;37465;52.738;4.752;2022-12-29T01:24:28;12.10;;;2.70;;
51374;SDS011;37465;52.738;4.752;2022-12-29T01:26:55;7.95;;;2.17;;
51374;SDS011;37465;52.738;4.752;2022-12-29T01:29:24;10.07;;;1.60;;
51374;SDS011;37465;52.738;4.752;2022-12-29T01:31:52;8.27;;;1.52;;
51374;SDS011;37465;52.738;4.752;2022-12-29T01:34:20;8.93;;;2.03;;
51374;SDS011;37465;52.738;4.752;2022-12-29T01:36:47;10.60;;;1.35;;
51374;SDS011;37465;52.738;4.752;2022-12-29T01:39:15;8.00;;;1.42;;
51374;SDS011;37465;52.738;4.752;2022-12-29T01:41:42;8.65;;;1.50;;
51374;SDS011;37465;52.738;4.752;2022-12-29T01:47:14;10.77;;;1.58;;
51374;SDS011;37465;52.738;4.752;2022-12-29T01:49:46;12.07;;;1.63;;
51374;SDS011;37465;52.738;4.752;2022-12-29T01:52:14;11.55;;;1.83;;
51374;SDS011;37465;52.738;4.752;2022-12-29T01:54:42;9.52;;;1.83;;
51374;SDS011;37465;52.738;4.752;2022-12-29T01:57:11;10.27;;;1.70;;
51374;SDS011;37465;52.738;4.752;2022-12-29T01:59:41;7.03;;;1.60;;
51374;SDS011;37465;52.738;4.752;2022-12-29T02:02:13;11.55;;;2.20;;
51374;SDS011;37465;52.738;4.752;2022-12-29T02:04:41;14.75;;;2.85;;
51374;SDS011;37465;52.738;4.752;2022-12-29T02:07:11;14.00;;;2.90;;
51374;SDS011;37465;52.738;4.752;2022-12-29T02:09:42;18.08;;;3.35;;
51374;SDS011;37465;52.738;4.752;2022-12-29T02:12:10;19.90;;;3.30;;
51374;SDS011;37465;52.738;4.752;2022-12-29T02:14:37;18.40;;;4.15;;
51374;SDS011;37465;52.738;4.752;2022-12-29T02:17:08;18.90;;;3.40;;
51374;SDS011;37465;52.738;4.752;2022-12-29T02:22:56;22.48;;;3.85;;
51374;SDS011;37465;52.738;4.752;2022-12-29T02:25:48;19.40;;;3.90;;
51374;SDS011;37465;52.738;4.752;2022-12-29T02:28:32;25.40;;;4.55;;
51374;SDS011;37465;52.738;4.752;2022-12-29T02:31:12;21.33;;;3.90;;
51374;SDS011;37465;52.738;4.752;2022-12-29T02:33:48;25.73;;;4.65;;
51374;SDS011;37465;52.738;4.752;2022-12-29T02:36:21;22.60;;;4.60;;
51374;SDS011;37465;52.738;4.752;2022-12-29T02:38:55;29.08;;;4.93;;
51374;SDS011;37465;52.738;4.752;2022-12-29T02:41:29;25.17;;;4.40;;
51374;SDS011;37465;52.738;4.752;2022-12-29T02:44:01;21.02;;;3.65;;
51374;SDS011;37465;52.738;4.752;2022-12-29T02:46:35;22.43;;;3.73;;
51374;SDS011;37465;52.738;4.752;2022-12-29T02:49:06;18.00;;;3.53;;
51374;SDS011;37465;52.738;4.752;2022-12-29T02:51:39;21.50;;;4.07;;
51374;SDS011;37465;52.738;4.752;2022-12-29T02:54:10;22.67;;;3.85;;
51374;SDS011;37465;52.738;4.752;2022-12-29T02:56:55;24.23;;;3.75;;
51374;SDS011;37465;52.738;4.752;2022-12-29T02:59:23;21.08;;;4.00;;
51374;SDS011;37465;52.738;4.752;2022-12-29T03:01:58;22.55;;;4.22;;
51374;SDS011;37465;52.738;4.752;2022-12-29T03:04:47;19.25;;;3.75;;
51374;SDS011;37465;52.738;4.752;2022-12-29T03:07:24;27.98;;;5.05;;
51374;SDS011;37465;52.738;4.752;2022-12-29T03:09:56;23.23;;;4.45;;
51374;SDS011;37465;52.738;4.752;2022-12-29T03:12:29;24.38;;;3.97;;
51374;SDS011;37465;52.738;4.752;2022-12-29T03:15:18;23.45;;;4.13;;
51374;SDS011;37465;52.738;4.752;2022-12-29T03:18:10;32.20;;;4.50;;
51374;SDS011;37465;52.738;4.752;2022-12-29T03:20:41;26.20;;;4.32;;
51374;SDS011;37465;52.738;4.752;2022-12-29T03:23:12;27.08;;;4.35;;
51374;SDS011;37465;52.738;4.752;2022-12-29T03:25:41;25.38;;;4.95;;
51374;SDS011;37465;52.738;4.752;2022-12-29T03:28:12;30.17;;;5.13;;
51374;SDS011;37465;52.738;4.752;2022-12-29T03:30:41;34.05;;;5.85;;
51374;SDS011;37465;52.738;4.752;2022-12-29T03:33:11;35.17;;;5.97;;
51374;SDS011;37465;52.738;4.752;2022-12-29T03:35:40;31.20;;;4.95;;
51374;SDS011;37465;52.738;4.752;2022-12-29T03:38:11;39.30;;;6.03;;
51374;SDS011;37465;52.738;4.752;2022-12-29T03:40:43;28.98;;;5.45;;
51374;SDS011;37465;52.738;4.752;2022-12-29T03:43:12;34.05;;;5.50;;
51374;SDS011;37465;52.738;4.752;2022-12-29T03:45:40;35.10;;;5.70;;
51374;SDS011;37465;52.738;4.752;2022-12-29T03:48:08;31.40;;;5.80;;
51374;SDS011;37465;52.738;4.752;2022-12-29T03:50:37;31.88;;;6.38;;
51374;SDS011;37465;52.738;4.752;2022-12-29T03:53:05;38.05;;;5.93;;
51374;SDS011;37465;52.738;4.752;2022-12-29T03:55:32;39.07;;;6.77;;
51374;SDS011;37465;52.738;4.752;2022-12-29T03:58:00;41.83;;;6.87;;
51374;SDS011;37465;52.738;4.752;2022-12-29T04:00:28;39.08;;;7.00;;
51374;SDS011;37465;52.738;4.752;2022-12-29T04:02:55;34.80;;;6.30;;
51374;SDS011;37465;52.738;4.752;2022-12-29T04:05:23;34.73;;;6.17;;
51374;SDS011;37465;52.738;4.752;2022-12-29T04:07:52;36.00;;;6.55;;
51374;SDS011;37465;52.738;4.752;2022-12-29T04:10:20;38.13;;;6.20;;
51374;SDS011;37465;52.738;4.752;2022-12-29T04:12:47;35.55;;;6.40;;
51374;SDS011;37465;52.738;4.752;2022-12-29T04:15:15;33.77;;;6.40;;
51374;SDS011;37465;52.738;4.752;2022-12-29T04:17:43;32.53;;;6.18;;
51374;SDS011;37465;52.738;4.752;2022-12-29T04:20:11;40.60;;;6.63;;
51374;SDS011;37465;52.738;4.752;2022-12-29T04:23:00;36.42;;;6.50;;
51374;SDS011;37465;52.738;4.752;2022-12-29T04:25:28;35.35;;;6.18;;
51374;SDS011;37465;52.738;4.752;2022-12-29T04:27:57;28.25;;;5.18;;
51374;SDS011;37465;52.738;4.752;2022-12-29T04:30:25;27.70;;;5.60;;
51374;SDS011;37465;52.738;4.752;2022-12-29T04:32:52;33.13;;;5.50;;
51374;SDS011;37465;52.738;4.752;2022-12-29T04:35:20;31.27;;;5.60;;
51374;SDS011;37465;52.738;4.752;2022-12-29T04:37:48;31.33;;;5.40;;
51374;SDS011;37465;52.738;4.752;2022-12-29T04:40:17;32.97;;;5.55;;
51374;SDS011;37465;52.738;4.752;2022-12-29T04:42:44;29.55;;;5.07;;
51374;SDS011;37465;52.738;4.752;2022-12-29T04:45:12;24.45;;;4.60;;
51374;SDS011;37465;52.738;4.752;2022-12-29T04:47:40;25.85;;;5.55;;
51374;SDS011;37465;52.738;4.752;2022-12-29T04:50:07;25.52;;;5.05;;
51374;SDS011;37465;52.738;4.752;2022-12-29T04:52:35;32.83;;;5.70;;
51374;SDS011;37465;52.738;4.752;2022-12-29T04:55:03;29.20;;;5.00;;
51374;SDS011;37465;52.738;4.752;2022-12-29T04:57:34;32.47;;;6.07;;
51374;SDS011;37465;52.738;4.752;2022-12-29T05:00:02;30.83;;;5.78;;
51374;SDS011;37465;52.738;4.752;2022-12-29T05:02:30;34.20;;;6.33;;
51374;SDS011;37465;52.738;4.752;2022-12-29T05:04:59;28.90;;;5.97;;
51374;SDS011;37465;52.738;4.752;2022-12-29T05:07:26;31.50;;;5.97;;
51374;SDS011;37465;52.738;4.752;2022-12-29T05:09:54;29.10;;;5.60;;
51374;SDS011;37465;52.738;4.752;2022-12-29T05:12:22;28.75;;;6.07;;
51374;SDS011;37465;52.738;4.752;2022-12-29T05:14:50;38.63;;;6.70;;
51374;SDS011;37465;52.738;4.752;2022-12-29T05:17:18;39.08;;;7.72;;
51374;SDS011;37465;52.738;4.752;2022-12-29T05:19:46;32.47;;;6.65;;
51374;SDS011;37465;52.738;4.752;2022-12-29T05:22:13;35.08;;;6.65;;
51374;SDS011;37465;52.738;4.752;2022-12-29T05:24:43;34.00;;;6.53;;
51374;SDS011;37465;52.738;4.752;2022-12-29T05:27:11;36.75;;;6.85;;
51374;SDS011;37465;52.738;4.752;2022-12-29T05:29:38;33.13;;;6.72;;
51374;SDS011;37465;52.738;4.752;2022-12-29T05:32:07;38.10;;;6.13;;
51374;SDS011;37465;52.738;4.752;2022-12-29T05:34:35;35.78;;;6.72;;
51374;SDS011;37465;52.738;4.752;2022-12-29T05:37:02;37.65;;;7.10;;
51374;SDS011;37465;52.738;4.752;2022-12-29T05:39:30;30.08;;;5.93;;
51374;SDS011;37465;52.738;4.752;2022-12-29T05:41:58;31.95;;;6.22;;
51374;SDS011;37465;52.738;4.752;2022-12-29T05:44:25;36.50;;;6.47;;
51374;SDS011;37465;52.738;4.752;2022-12-29T05:46:53;32.30;;;6.00;;
51374;SDS011;37465;52.738;4.752;2022-12-29T05:49:22;29.55;;;6.22;;
51374;SDS011;37465;52.738;4.752;2022-12-29T05:51:49;33.58;;;6.20;;
51374;SDS011;37465;52.738;4.752;2022-12-29T05:54:17;33.03;;;6.20;;
51374;SDS011;37465;52.738;4.752;2022-12-29T05:56:45;31.53;;;5.80;;
51374;SDS011;37465;52.738;4.752;2022-12-29T05:59:12;31.40;;;6.13;;
51374;SDS011;37465;52.738;4.752;2022-12-29T06:01:40;30.10;;;6.18;;
51374;SDS011;37465;52.738;4.752;2022-12-29T06:04:08;30.38;;;6.22;;
51374;SDS011;37465;52.738;4.752;2022-12-29T06:06:37;28.33;;;6.05;;
51374;SDS011;37465;52.738;4.752;2022-12-29T06:09:05;29.75;;;6.65;;
51374;SDS011;37465;52.738;4.752;2022-12-29T06:11:33;34.00;;;6.20;;
51374;SDS011;37465;52.738;4.752;2022-12-29T06:14:01;34.07;;;6.83;;
51374;SDS011;37465;52.738;4.752;2022-12-29T06:16:28;33.45;;;6.38;;
51374;SDS011;37465;52.738;4.752;2022-12-29T06:18:56;31.50;;;6.13;;
51374;SDS011;37465;52.738;4.752;2022-12-29T06:21:24;31.25;;;6.07;;
51374;SDS011;37465;52.738;4.752;2022-12-29T06:23:53;31.73;;;6.30;;
51374;SDS011;37465;52.738;4.752;2022-12-29T06:26:20;31.50;;;6.93;;
51374;SDS011;37465;52.738;4.752;2022-12-29T06:28:48;29.95;;;6.53;;
51374;SDS011;37465;52.738;4.752;2022-12-29T06:31:16;29.90;;;6.57;;
51374;SDS011;37465;52.738;4.752;2022-12-29T06:33:43;37.77;;;7.73;;
51374;SDS011;37465;52.738;4.752;2022-12-29T06:36:15;37.55;;;7.35;;
51374;SDS011;37465;52.738;4.752;2022-12-29T06:38:43;32.77;;;6.53;;
51374;SDS011;37465;52.738;4.752;2022-12-29T06:41:12;32.90;;;6.47;;
51374;SDS011;37465;52.738;4.752;2022-12-29T06:43:39;33.40;;;6.32;;
51374;SDS011;37465;52.738;4.752;2022-12-29T06:46:07;36.60;;;7.03;;
51374;SDS011;37465;52.738;4.752;2022-12-29T06:48:35;32.83;;;6.85;;
51374;SDS011;37465;52.738;4.752;2022-12-29T06:51:02;30.30;;;6.77;;
51374;SDS011;37465;52.738;4.752;2022-12-29T06:53:30;30.30;;;6.40;;
51374;SDS011;37465;52.738;4.752;2022-12-29T06:55:58;31.63;;;6.20;;
51374;SDS011;37465;52.738;4.752;2022-12-29T06:58:27;37.10;;;6.68;;
51374;SDS011;37465;52.738;4.752;2022-12-29T07:00:55;32.10;;;6.57;;
51374;SDS011;37465;52.738;4.752;2022-12-29T07:03:22;36.47;;;6.50;;
51374;SDS011;37465;52.738;4.752;2022-12-29T07:05:50;30.65;;;5.97;;
51374;SDS011;37465;52.738;4.752;2022-12-29T07:08:18;35.72;;;6.53;;
51374;SDS011;37465;52.738;4.752;2022-12-29T07:10:45;32.65;;;6.35;;
51374;SDS011;37465;52.738;4.752;2022-12-29T07:13:13;34.03;;;6.28;;
51374;SDS011;37465;52.738;4.752;2022-12-29T07:15:42;32.80;;;6.15;;
51374;SDS011;37465;52.738;4.752;2022-12-29T07:18:09;31.88;;;6.78;;
51374;SDS011;37465;52.738;4.752;2022-12-29T07:20:37;35.03;;;6.60;;
51374;SDS011;37465;52.738;4.752;2022-12-29T07:23:05;33.97;;;6.18;;
51374;SDS011;37465;52.738;4.752;2022-12-29T07:25:32;34.78;;;7.10;;
51374;SDS011;37465;52.738;4.752;2022-12-29T07:28:01;34.67;;;6.93;;
51374;SDS011;37465;52.738;4.752;2022-12-29T07:30:29;34.17;;;7.20;;
51374;SDS011;37465;52.738;4.752;2022-12-29T07:32:59;36.53;;;7.50;;
51374;SDS011;37465;52.738;4.752;2022-12-29T07:35:26;35.45;;;6.75;;
51374;SDS011;37465;52.738;4.752;2022-12-29T07:37:54;34.65;;;7.00;;
51374;SDS011;37465;52.738;4.752;2022-12-29T07:40:22;30.45;;;6.30;;
51374;SDS011;37465;52.738;4.752;2022-12-29T07:42:49;33.47;;;7.20;;
51374;SDS011;37465;52.738;4.752;2022-12-29T07:45:17;35.85;;;7.43;;
51374;SDS011;37465;52.738;4.752;2022-12-29T07:47:46;34.33;;;7.05;;
51374;SDS011;37465;52.738;4.752;2022-12-29T07:50:16;35.72;;;7.13;;
51374;SDS011;37465;52.738;4.752;2022-12-29T07:52:44;28.05;;;6.47;;
51374;SDS011;37465;52.738;4.752;2022-12-29T07:55:13;33.88;;;6.25;;
51374;SDS011;37465;52.738;4.752;2022-12-29T07:57:41;36.10;;;6.88;;
51374;SDS011;37465;52.738;4.752;2022-12-29T08:00:09;33.90;;;6.18;;
51374;SDS011;37465;52.738;4.752;2022-12-29T08:02:37;36.03;;;7.32;;
51374;SDS011;37465;52.738;4.752;2022-12-29T08:05:05;41.13;;;7.15;;
51374;SDS011;37465;52.738;4.752;2022-12-29T08:07:34;32.57;;;7.03;;
51374;SDS011;37465;52.738;4.752;2022-12-29T08:10:02;41.08;;;7.30;;
51374;SDS011;37465;52.738;4.752;2022-12-29T08:12:30;41.22;;;7.60;;
51374;SDS011;37465;52.738;4.752;2022-12-29T08:14:58;39.45;;;6.95;;
51374;SDS011;37465;52.738;4.752;2022-12-29T08:17:26;43.30;;;8.52;;
51374;SDS011;37465;52.738;4.752;2022-12-29T08:19:53;43.50;;;7.88;;
51374;SDS011;37465;52.738;4.752;2022-12-29T08:22:21;44.30;;;8.55;;
51374;SDS011;37465;52.738;4.752;2022-12-29T08:24:50;50.30;;;9.32;;
51374;SDS011;37465;52.738;4.752;2022-12-29T08:27:18;40.47;;;7.67;;
51374;SDS011;37465;52.738;4.752;2022-12-29T08:29:46;47.95;;;8.45;;
51374;SDS011;37465;52.738;4.752;2022-12-29T08:32:14;51.27;;;8.57;;
51374;SDS011;37465;52.738;4.752;2022-12-29T08:34:42;42.90;;;8.65;;
51374;SDS011;37465;52.738;4.752;2022-12-29T08:37:10;47.97;;;8.10;;
51374;SDS011;37465;52.738;4.752;2022-12-29T08:39:38;41.10;;;7.82;;
51374;SDS011;37465;52.738;4.752;2022-12-29T08:42:07;42.90;;;8.15;;
51374;SDS011;37465;52.738;4.752;2022-12-29T08:44:34;54.40;;;9.20;;
51374;SDS011;37465;52.738;4.752;2022-12-29T08:47:02;42.88;;;7.88;;
51374;SDS011;37465;52.738;4.752;2022-12-29T08:49:30;43.53;;;8.18;;
51374;SDS011;37465;52.738;4.752;2022-12-29T08:51:58;46.63;;;8.32;;
51374;SDS011;37465;52.738;4.752;2022-12-29T08:54:26;41.20;;;7.35;;
51374;SDS011;37465;52.738;4.752;2022-12-29T08:56:53;38.07;;;7.43;;
51374;SDS011;37465;52.738;4.752;2022-12-29T08:59:22;37.00;;;6.70;;
51374;SDS011;37465;52.738;4.752;2022-12-29T09:01:50;39.05;;;7.03;;
51374;SDS011;37465;52.738;4.752;2022-12-29T09:04:18;43.33;;;7.30;;
51374;SDS011;37465;52.738;4.752;2022-12-29T09:06:46;47.00;;;8.35;;
51374;SDS011;37465;52.738;4.752;2022-12-29T09:09:13;44.35;;;8.07;;
51374;SDS011;37465;52.738;4.752;2022-12-29T09:11:41;54.05;;;8.63;;
51374;SDS011;37465;52.738;4.752;2022-12-29T09:14:09;47.07;;;8.53;;
51374;SDS011;37465;52.738;4.752;2022-12-29T09:16:38;51.97;;;8.90;;
51374;SDS011;37465;52.738;4.752;2022-12-29T09:19:20;57.08;;;9.65;;
51374;SDS011;37465;52.738;4.752;2022-12-29T09:21:48;54.95;;;9.25;;
51374;SDS011;37465;52.738;4.752;2022-12-29T09:24:15;60.13;;;10.63;;
51374;SDS011;37465;52.738;4.752;2022-12-29T09:26:43;62.78;;;10.70;;
51374;SDS011;37465;52.738;4.752;2022-12-29T09:29:12;65.60;;;10.82;;
51374;SDS011;37465;52.738;4.752;2022-12-29T09:31:41;58.97;;;10.18;;
51374;SDS011;37465;52.738;4.752;2022-12-29T09:34:09;57.00;;;9.45;;
51374;SDS011;37465;52.738;4.752;2022-12-29T09:36:36;48.53;;;8.20;;
51374;SDS011;37465;52.738;4.752;2022-12-29T09:39:04;44.67;;;7.83;;
51374;SDS011;37465;52.738;4.752;2022-12-29T09:41:33;45.33;;;7.18;;
51374;SDS011;37465;52.738;4.752;2022-12-29T09:44:06;33.47;;;6.20;;
51374;SDS011;37465;52.738;4.752;2022-12-29T09:46:37;29.20;;;5.55;;
51374;SDS011;37465;52.738;4.752;2022-12-29T09:49:13;28.23;;;5.22;;
51374;SDS011;37465;52.738;4.752;2022-12-29T09:51:45;26.67;;;5.05;;
51374;SDS011;37465;52.738;4.752;2022-12-29T09:54:20;27.25;;;4.63;;
51374;SDS011;37465;52.738;4.752;2022-12-29T09:56:51;22.15;;;4.32;;
51374;SDS011;37465;52.738;4.752;2022-12-29T09:59:20;25.90;;;5.55;;
51374;SDS011;37465;52.738;4.752;2022-12-29T10:01:51;22.98;;;3.97;;
51374;SDS011;37465;52.738;4.752;2022-12-29T10:04:26;21.23;;;4.25;;
51374;SDS011;37465;52.738;4.752;2022-12-29T10:06:56;19.42;;;4.00;;
51374;SDS011;37465;52.738;4.752;2022-12-29T10:09:45;23.13;;;4.37;;
51374;SDS011;37465;52.738;4.752;2022-12-29T10:12:20;21.27;;;3.88;;
51374;SDS011;37465;52.738;4.752;2022-12-29T10:14:56;19.80;;;4.20;;
51374;SDS011;37465;52.738;4.752;2022-12-29T10:17:30;20.38;;;4.38;;
51374;SDS011;37465;52.738;4.752;2022-12-29T10:20:10;24.33;;;4.18;;
51374;SDS011;37465;52.738;4.752;2022-12-29T10:22:46;20.48;;;3.92;;
51374;SDS011;37465;52.738;4.752;2022-12-29T10:25:22;19.17;;;4.13;;
51374;SDS011;37465;52.738;4.752;2022-12-29T10:27:58;15.75;;;3.58;;
51374;SDS011;37465;52.738;4.752;2022-12-29T10:30:29;15.82;;;2.95;;
51374;SDS011;37465;52.738;4.752;2022-12-29T10:32:57;15.77;;;3.33;;
51374;SDS011;37465;52.738;4.752;2022-12-29T10:35:29;18.13;;;3.50;;
51374;SDS011;37465;52.738;4.752;2022-12-29T10:37:59;17.85;;;3.47;;
51374;SDS011;37465;52.738;4.752;2022-12-29T10:40:31;16.92;;;3.42;;
51374;SDS011;37465;52.738;4.752;2022-12-29T10:43:00;14.50;;;3.05;;
51374;SDS011;37465;52.738;4.752;2022-12-29T10:45:34;15.23;;;2.92;;
51374;SDS011;37465;52.738;4.752;2022-12-29T10:48:02;12.40;;;2.80;;
51374;SDS011;37465;52.738;4.752;2022-12-29T10:50:33;12.77;;;2.65;;
51374;SDS011;37465;52.738;4.752;2022-12-29T10:53:02;13.00;;;2.50;;
51374;SDS011;37465;52.738;4.752;2022-12-29T10:55:32;11.63;;;2.67;;
51374;SDS011;37465;52.738;4.752;2022-12-29T10:58:02;15.85;;;2.90;;
51374;SDS011;37465;52.738;4.752;2022-12-29T11:00:32;15.27;;;3.08;;
51374;SDS011;37465;52.738;4.752;2022-12-29T11:06:05;18.10;;;3.45;;
51374;SDS011;37465;52.738;4.752;2022-12-29T11:08:36;18.20;;;3.20;;
51374;SDS011;37465;52.738;4.752;2022-12-29T11:11:06;16.35;;;3.03;;
51374;SDS011;37465;52.738;4.752;2022-12-29T11:13:36;15.32;;;3.05;;
51374;SDS011;37465;52.738;4.752;2022-12-29T11:16:14;14.20;;;2.78;;
51374;SDS011;37465;52.738;4.752;2022-12-29T11:18:42;15.05;;;3.13;;
51374;SDS011;37465;52.738;4.752;2022-12-29T11:21:24;12.80;;;2.55;;
51374;SDS011;37465;52.738;4.752;2022-12-29T11:23:55;13.65;;;2.92;;
51374;SDS011;37465;52.738;4.752;2022-12-29T11:26:23;13.23;;;3.00;;
51374;SDS011;37465;52.738;4.752;2022-12-29T11:29:11;12.80;;;2.65;;
51374;SDS011;37465;52.738;4.752;2022-12-29T11:31:45;15.63;;;2.80;;
51374;SDS011;37465;52.738;4.752;2022-12-29T11:34:17;13.40;;;2.75;;
51374;SDS011;37465;52.738;4.752;2022-12-29T11:36:47;11.80;;;2.90;;
51374;SDS011;37465;52.738;4.752;2022-12-29T11:39:25;10.45;;;2.80;;
51374;SDS011;37465;52.738;4.752;2022-12-29T11:41:56;15.15;;;2.78;;
51374;SDS011;37465;52.738;4.752;2022-12-29T11:44:24;15.27;;;2.85;;
51374;SDS011;37465;52.738;4.752;2022-12-29T11:46:52;13.80;;;2.95;;
51374;SDS011;37465;52.738;4.752;2022-12-29T11:49:21;14.20;;;3.00;;
51374;SDS011;37465;52.738;4.752;2022-12-29T11:51:51;12.25;;;2.35;;
51374;SDS011;37465;52.738;4.752;2022-12-29T11:54:23;13.37;;;2.77;;
51374;SDS011;37465;52.738;4.752;2022-12-29T11:56:52;12.65;;;2.50;;
51374;SDS011;37465;52.738;4.752;2022-12-29T11:59:25;13.00;;;2.83;;
51374;SDS011;37465;52.738;4.752;2022-12-29T12:08:01;13.27;;;3.07;;
51374;SDS011;37465;52.738;4.752;2022-12-29T12:10:31;15.65;;;3.30;;
51374;SDS011;37465;52.738;4.752;2022-12-29T12:13:06;14.63;;;2.67;;
51374;SDS011;37465;52.738;4.752;2022-12-29T12:15:36;17.35;;;3.28;;
51374;SDS011;37465;52.738;4.752;2022-12-29T12:18:14;16.92;;;3.30;;
51374;SDS011;37465;52.738;4.752;2022-12-29T12:20:47;13.88;;;2.85;;
51374;SDS011;37465;52.738;4.752;2022-12-29T12:23:21;13.48;;;2.70;;
51374;SDS011;37465;52.738;4.752;2022-12-29T12:25:56;14.07;;;2.88;;
51374;SDS011;37465;52.738;4.752;2022-12-29T12:28:30;11.43;;;2.58;;
51374;SDS011;37465;52.738;4.752;2022-12-29T12:31:02;15.75;;;2.90;;
51374;SDS011;37465;52.738;4.752;2022-12-29T12:33:35;12.20;;;2.58;;
51374;SDS011;37465;52.738;4.752;2022-12-29T12:36:13;11.87;;;2.47;;
51374;SDS011;37465;52.738;4.752;2022-12-29T12:38:51;12.40;;;2.95;;
51374;SDS011;37465;52.738;4.752;2022-12-29T12:41:24;14.68;;;3.03;;
51374;SDS011;37465;52.738;4.752;2022-12-29T12:44:00;14.37;;;2.80;;
51374;SDS011;37465;52.738;4.752;2022-12-29T12:46:42;10.77;;;2.40;;
51374;SDS011;37465;52.738;4.752;2022-12-29T12:52:11;15.75;;;3.30;;
51374;SDS011;37465;52.738;4.752;2022-12-29T12:54:51;15.80;;;3.10;;
51374;SDS011;37465;52.738;4.752;2022-12-29T12:57:31;13.10;;;2.75;;
51374;SDS011;37465;52.738;4.752;2022-12-29T13:00:08;15.70;;;2.95;;
51374;SDS011;37465;52.738;4.752;2022-12-29T13:02:40;15.85;;;3.28;;
51374;SDS011;37465;52.738;4.752;2022-12-29T13:05:21;13.30;;;2.80;;
51374;SDS011;37465;52.738;4.752;2022-12-29T13:07:57;14.27;;;2.65;;
51374;SDS011;37465;52.738;4.752;2022-12-29T13:10:35;14.48;;;3.28;;
51374;SDS011;37465;52.738;4.752;2022-12-29T13:13:22;12.38;;;2.92;;
51374;SDS011;37465;52.738;4.752;2022-12-29T13:16:01;16.10;;;3.58;;
51374;SDS011;37465;52.738;4.752;2022-12-29T13:18:43;15.27;;;3.25;;
51374;SDS011;37465;52.738;4.752;2022-12-29T13:21:15;13.52;;;2.95;;
51374;SDS011;37465;52.738;4.752;2022-12-29T13:23:52;16.58;;;3.10;;
51374;SDS011;37465;52.738;4.752;2022-12-29T13:26:25;14.13;;;3.08;;
51374;SDS011;37465;52.738;4.752;2022-12-29T13:28:57;15.35;;;2.90;;
51374;SDS011;37465;52.738;4.752;2022-12-29T13:31:28;15.50;;;2.88;;
51374;SDS011;37465;52.738;4.752;2022-12-29T13:34:03;15.38;;;3.08;;
51374;SDS011;37465;52.738;4.752;2022-12-29T13:36:33;14.63;;;3.07;;
51374;SDS011;37465;52.738;4.752;2022-12-29T13:39:05;13.50;;;3.60;;
51374;SDS011;37465;52.738;4.752;2022-12-29T13:41:48;13.27;;;2.92;;
51374;SDS011;37465;52.738;4.752;2022-12-29T13:44:18;15.60;;;3.25;;
51374;SDS011;37465;52.738;4.752;2022-12-29T13:46:48;16.40;;;3.10;;
51374;SDS011;37465;52.738;4.752;2022-12-29T13:49:17;13.23;;;2.75;;
51374;SDS011;37465;52.738;4.752;2022-12-29T13:51:47;17.42;;;2.95;;
51374;SDS011;37465;52.738;4.752;2022-12-29T13:54:18;13.80;;;2.80;;
51374;SDS011;37465;52.738;4.752;2022-12-29T13:56:54;16.90;;;3.47;;
51374;SDS011;37465;52.738;4.752;2022-12-29T13:59:32;16.15;;;3.50;;
51374;SDS011;37465;52.738;4.752;2022-12-29T14:02:09;14.68;;;3.22;;
51374;SDS011;37465;52.738;4.752;2022-12-29T14:04:54;12.38;;;2.65;;
51374;SDS011;37465;52.738;4.752;2022-12-29T14:07:24;11.98;;;2.78;;
51374;SDS011;37465;52.738;4.752;2022-12-29T14:09:52;14.43;;;3.13;;
51374;SDS011;37465;52.738;4.752;2022-12-29T14:12:25;14.40;;;2.95;;
51374;SDS011;37465;52.738;4.752;2022-12-29T14:15:02;15.63;;;2.92;;
51374;SDS011;37465;52.738;4.752;2022-12-29T14:17:34;12.80;;;3.20;;
51374;SDS011;37465;52.738;4.752;2022-12-29T14:20:03;15.68;;;3.03;;
51374;SDS011;37465;52.738;4.752;2022-12-29T14:22:31;15.32;;;3.13;;
51374;SDS011;37465;52.738;4.752;2022-12-29T14:24:59;13.82;;;3.22;;
51374;SDS011;37465;52.738;4.752;2022-12-29T14:27:44;13.18;;;2.97;;
51374;SDS011;37465;52.738;4.752;2022-12-29T14:33:16;15.23;;;3.03;;
51374;SDS011;37465;52.738;4.752;2022-12-29T14:35:45;14.65;;;3.13;;
51374;SDS011;37465;52.738;4.752;2022-12-29T14:38:19;14.93;;;2.75;;
51374;SDS011;37465;52.738;4.752;2022-12-29T14:40:52;19.52;;;3.00;;
51374;SDS011;37465;52.738;4.752;2022-12-29T14:43:23;15.70;;;3.00;;
51374;SDS011;37465;52.738;4.752;2022-12-29T14:45:53;22.50;;;4.47;;
51374;SDS011;37465;52.738;4.752;2022-12-29T14:48:30;15.63;;;3.17;;
51374;SDS011;37465;52.738;4.752;2022-12-29T14:51:01;19.65;;;3.55;;
51374;SDS011;37465;52.738;4.752;2022-12-29T14:53:41;18.08;;;3.72;;
51374;SDS011;37465;52.738;4.752;2022-12-29T14:56:11;16.50;;;3.95;;
51374;SDS011;37465;52.738;4.752;2022-12-29T14:58:43;16.77;;;3.53;;
51374;SDS011;37465;52.738;4.752;2022-12-29T15:01:19;17.98;;;3.55;;
51374;SDS011;37465;52.738;4.752;2022-12-29T15:03:48;14.60;;;3.28;;
51374;SDS011;37465;52.738;4.752;2022-12-29T15:06:17;15.27;;;3.53;;
51374;SDS011;37465;52.738;4.752;2022-12-29T15:08:49;16.50;;;3.17;;
51374;SDS011;37465;52.738;4.752;2022-12-29T15:11:19;13.40;;;3.20;;
51374;SDS011;37465;52.738;4.752;2022-12-29T15:13:50;18.70;;;3.63;;
51374;SDS011;37465;52.738;4.752;2022-12-29T15:16:22;15.85;;;3.28;;
51374;SDS011;37465;52.738;4.752;2022-12-29T15:18:51;21.50;;;3.72;;
51374;SDS011;37465;52.738;4.752;2022-12-29T15:21:20;16.45;;;3.70;;